ěÝzenÝ letovÚho provozu ╚eskÚ republiky
Letiste: LKBC Aktualizace: 27.02.2024 12:16:52  UTC
 SPECI LKBC 27.02. 12:13 ...
SPECI LKBC 271213Z AUTO 36004KT 290V060 //// // BKN010 06/03 Q1011=